sensor_id;sensor_type;location;lat;lon;timestamp;P1;durP1;ratioP1;P2;durP2;ratioP2
803;SDS011;25687;49.976;8.240;2023-04-01T00:01:50;6.13;;;2.07;;
803;SDS011;25687;49.976;8.240;2023-04-01T00:04:16;5.07;;;2.07;;
803;SDS011;25687;49.976;8.240;2023-04-01T00:06:41;7.33;;;2.30;;
803;SDS011;25687;49.976;8.240;2023-04-01T00:09:06;5.80;;;1.63;;
803;SDS011;25687;49.976;8.240;2023-04-01T00:11:32;6.23;;;1.90;;
803;SDS011;25687;49.976;8.240;2023-04-01T00:13:57;5.33;;;2.40;;
803;SDS011;25687;49.976;8.240;2023-04-01T00:16:22;5.47;;;2.00;;
803;SDS011;25687;49.976;8.240;2023-04-01T00:18:49;4.93;;;2.30;;
803;SDS011;25687;49.976;8.240;2023-04-01T00:21:15;4.00;;;1.60;;
803;SDS011;25687;49.976;8.240;2023-04-01T00:23:41;6.23;;;1.70;;
803;SDS011;25687;49.976;8.240;2023-04-01T00:26:06;4.23;;;1.90;;
803;SDS011;25687;49.976;8.240;2023-04-01T00:28:33;4.27;;;1.27;;
803;SDS011;25687;49.976;8.240;2023-04-01T00:31:03;4.03;;;1.73;;
803;SDS011;25687;49.976;8.240;2023-04-01T00:33:29;4.53;;;1.77;;
803;SDS011;25687;49.976;8.240;2023-04-01T00:35:55;7.33;;;1.97;;
803;SDS011;25687;49.976;8.240;2023-04-01T00:38:21;6.90;;;1.80;;
803;SDS011;25687;49.976;8.240;2023-04-01T00:40:46;7.03;;;1.90;;
803;SDS011;25687;49.976;8.240;2023-04-01T00:43:17;6.00;;;1.83;;
803;SDS011;25687;49.976;8.240;2023-04-01T00:45:44;5.20;;;1.93;;
803;SDS011;25687;49.976;8.240;2023-04-01T00:48:13;5.90;;;1.93;;
803;SDS011;25687;49.976;8.240;2023-04-01T00:50:42;3.97;;;1.60;;
803;SDS011;25687;49.976;8.240;2023-04-01T00:53:16;5.80;;;1.80;;
803;SDS011;25687;49.976;8.240;2023-04-01T00:55:46;3.47;;;1.67;;
803;SDS011;25687;49.976;8.240;2023-04-01T00:58:17;7.97;;;1.70;;
803;SDS011;25687;49.976;8.240;2023-04-01T01:00:46;5.17;;;1.70;;
803;SDS011;25687;49.976;8.240;2023-04-01T01:03:14;3.87;;;1.83;;
803;SDS011;25687;49.976;8.240;2023-04-01T01:05:58;4.47;;;1.73;;
803;SDS011;25687;49.976;8.240;2023-04-01T01:11:37;8.37;;;2.20;;
803;SDS011;25687;49.976;8.240;2023-04-01T01:14:23;4.10;;;2.20;;
803;SDS011;25687;49.976;8.240;2023-04-01T01:17:42;3.17;;;1.70;;
803;SDS011;25687;49.976;8.240;2023-04-01T01:31:30;4.20;;;1.43;;
803;SDS011;25687;49.976;8.240;2023-04-01T01:34:18;3.27;;;1.67;;
803;SDS011;25687;49.976;8.240;2023-04-01T01:36:46;5.30;;;1.90;;
803;SDS011;25687;49.976;8.240;2023-04-01T01:39:18;5.50;;;1.63;;
803;SDS011;25687;49.976;8.240;2023-04-01T01:41:45;4.67;;;1.80;;
803;SDS011;25687;49.976;8.240;2023-04-01T01:44:14;4.00;;;1.50;;
803;SDS011;25687;49.976;8.240;2023-04-01T01:46:41;4.33;;;1.53;;
803;SDS011;25687;49.976;8.240;2023-04-01T01:49:08;5.80;;;1.77;;
803;SDS011;25687;49.976;8.240;2023-04-01T01:51:37;3.23;;;1.30;;
803;SDS011;25687;49.976;8.240;2023-04-01T01:54:02;6.17;;;1.97;;
803;SDS011;25687;49.976;8.240;2023-04-01T01:56:27;4.13;;;1.53;;
803;SDS011;25687;49.976;8.240;2023-04-01T01:58:59;3.97;;;1.83;;
803;SDS011;25687;49.976;8.240;2023-04-01T02:01:28;4.87;;;1.80;;
803;SDS011;25687;49.976;8.240;2023-04-01T02:03:56;4.37;;;1.47;;
803;SDS011;25687;49.976;8.240;2023-04-01T02:06:23;4.03;;;1.43;;
803;SDS011;25687;49.976;8.240;2023-04-01T02:08:52;2.93;;;1.33;;
803;SDS011;25687;49.976;8.240;2023-04-01T02:11:26;5.43;;;1.93;;
803;SDS011;25687;49.976;8.240;2023-04-01T02:13:59;4.47;;;1.80;;
803;SDS011;25687;49.976;8.240;2023-04-01T02:16:36;3.50;;;1.60;;
803;SDS011;25687;49.976;8.240;2023-04-01T02:19:08;2.87;;;1.47;;
803;SDS011;25687;49.976;8.240;2023-04-01T02:21:36;4.47;;;1.53;;
803;SDS011;25687;49.976;8.240;2023-04-01T02:24:04;3.70;;;1.77;;
803;SDS011;25687;49.976;8.240;2023-04-01T02:26:33;3.30;;;1.30;;
803;SDS011;25687;49.976;8.240;2023-04-01T02:28:59;4.63;;;1.53;;
803;SDS011;25687;49.976;8.240;2023-04-01T02:31:26;3.13;;;1.43;;
803;SDS011;25687;49.976;8.240;2023-04-01T02:33:52;4.90;;;1.70;;
803;SDS011;25687;49.976;8.240;2023-04-01T02:36:19;2.80;;;1.40;;
803;SDS011;25687;49.976;8.240;2023-04-01T02:38:44;3.90;;;1.87;;
803;SDS011;25687;49.976;8.240;2023-04-01T02:41:11;3.17;;;1.50;;
803;SDS011;25687;49.976;8.240;2023-04-01T02:43:37;3.07;;;1.30;;
803;SDS011;25687;49.976;8.240;2023-04-01T02:46:02;3.10;;;1.40;;
803;SDS011;25687;49.976;8.240;2023-04-01T02:48:28;5.70;;;1.87;;
803;SDS011;25687;49.976;8.240;2023-04-01T02:50:54;5.67;;;1.47;;
803;SDS011;25687;49.976;8.240;2023-04-01T02:53:19;6.93;;;1.57;;
803;SDS011;25687;49.976;8.240;2023-04-01T02:55:44;2.90;;;1.67;;
803;SDS011;25687;49.976;8.240;2023-04-01T02:58:10;5.83;;;1.60;;
803;SDS011;25687;49.976;8.240;2023-04-01T03:00:35;4.57;;;1.50;;
803;SDS011;25687;49.976;8.240;2023-04-01T03:03:01;5.13;;;1.43;;
803;SDS011;25687;49.976;8.240;2023-04-01T03:05:27;6.87;;;2.10;;
803;SDS011;25687;49.976;8.240;2023-04-01T03:07:52;4.73;;;1.53;;
803;SDS011;25687;49.976;8.240;2023-04-01T03:10:17;5.60;;;1.57;;
803;SDS011;25687;49.976;8.240;2023-04-01T03:12:43;4.37;;;1.60;;
803;SDS011;25687;49.976;8.240;2023-04-01T03:15:09;9.57;;;2.20;;
803;SDS011;25687;49.976;8.240;2023-04-01T03:17:36;5.00;;;1.40;;
803;SDS011;25687;49.976;8.240;2023-04-01T03:20:01;5.60;;;2.13;;
803;SDS011;25687;49.976;8.240;2023-04-01T03:22:29;3.40;;;1.57;;
803;SDS011;25687;49.976;8.240;2023-04-01T03:24:55;3.60;;;1.50;;
803;SDS011;25687;49.976;8.240;2023-04-01T03:27:20;5.30;;;1.67;;
803;SDS011;25687;49.976;8.240;2023-04-01T03:29:45;5.13;;;1.93;;
803;SDS011;25687;49.976;8.240;2023-04-01T03:32:11;2.70;;;1.43;;
803;SDS011;25687;49.976;8.240;2023-04-01T03:34:36;4.33;;;1.53;;
803;SDS011;25687;49.976;8.240;2023-04-01T03:37:01;3.20;;;1.60;;
803;SDS011;25687;49.976;8.240;2023-04-01T03:39:26;4.67;;;1.93;;
803;SDS011;25687;49.976;8.240;2023-04-01T03:41:52;4.77;;;1.87;;
803;SDS011;25687;49.976;8.240;2023-04-01T03:44:17;5.77;;;1.63;;
803;SDS011;25687;49.976;8.240;2023-04-01T03:46:42;5.50;;;1.90;;
803;SDS011;25687;49.976;8.240;2023-04-01T03:49:08;8.00;;;2.00;;
803;SDS011;25687;49.976;8.240;2023-04-01T03:51:37;4.57;;;1.93;;
803;SDS011;25687;49.976;8.240;2023-04-01T03:54:06;5.40;;;1.50;;
803;SDS011;25687;49.976;8.240;2023-04-01T03:56:31;5.67;;;2.37;;
803;SDS011;25687;49.976;8.240;2023-04-01T03:58:57;5.00;;;1.80;;
803;SDS011;25687;49.976;8.240;2023-04-01T04:01:22;4.30;;;1.40;;
803;SDS011;25687;49.976;8.240;2023-04-01T04:03:48;4.13;;;1.67;;
803;SDS011;25687;49.976;8.240;2023-04-01T04:06:15;3.80;;;1.40;;
803;SDS011;25687;49.976;8.240;2023-04-01T04:08:42;5.00;;;1.63;;
803;SDS011;25687;49.976;8.240;2023-04-01T04:11:07;4.23;;;1.63;;
803;SDS011;25687;49.976;8.240;2023-04-01T04:13:33;3.67;;;1.40;;
803;SDS011;25687;49.976;8.240;2023-04-01T04:15:58;4.13;;;1.60;;
803;SDS011;25687;49.976;8.240;2023-04-01T04:18:23;2.50;;;1.23;;
803;SDS011;25687;49.976;8.240;2023-04-01T04:20:48;7.47;;;1.73;;
803;SDS011;25687;49.976;8.240;2023-04-01T04:23:16;3.27;;;1.80;;
803;SDS011;25687;49.976;8.240;2023-04-01T04:25:52;3.27;;;1.37;;
803;SDS011;25687;49.976;8.240;2023-04-01T04:28:26;5.53;;;2.13;;
803;SDS011;25687;49.976;8.240;2023-04-01T04:30:52;5.37;;;2.47;;
803;SDS011;25687;49.976;8.240;2023-04-01T04:33:19;5.53;;;1.73;;
803;SDS011;25687;49.976;8.240;2023-04-01T04:35:44;4.83;;;1.60;;
803;SDS011;25687;49.976;8.240;2023-04-01T04:38:10;6.97;;;1.90;;
803;SDS011;25687;49.976;8.240;2023-04-01T04:40:36;4.37;;;1.57;;
803;SDS011;25687;49.976;8.240;2023-04-01T04:43:02;3.43;;;1.60;;
803;SDS011;25687;49.976;8.240;2023-04-01T04:45:28;2.13;;;1.23;;
803;SDS011;25687;49.976;8.240;2023-04-01T04:47:53;3.17;;;1.53;;
803;SDS011;25687;49.976;8.240;2023-04-01T04:50:18;3.43;;;1.83;;
803;SDS011;25687;49.976;8.240;2023-04-01T04:52:43;12.67;;;2.27;;
803;SDS011;25687;49.976;8.240;2023-04-01T04:55:09;7.33;;;2.00;;
803;SDS011;25687;49.976;8.240;2023-04-01T04:57:34;5.63;;;1.90;;
803;SDS011;25687;49.976;8.240;2023-04-01T04:59:59;3.57;;;1.60;;
803;SDS011;25687;49.976;8.240;2023-04-01T05:02:25;2.97;;;1.40;;
803;SDS011;25687;49.976;8.240;2023-04-01T05:04:50;4.37;;;1.50;;
803;SDS011;25687;49.976;8.240;2023-04-01T05:07:15;3.47;;;1.50;;
803;SDS011;25687;49.976;8.240;2023-04-01T05:09:40;3.20;;;1.17;;
803;SDS011;25687;49.976;8.240;2023-04-01T05:12:06;3.87;;;1.43;;
803;SDS011;25687;49.976;8.240;2023-04-01T05:14:31;4.20;;;1.40;;
803;SDS011;25687;49.976;8.240;2023-04-01T05:16:56;5.27;;;1.60;;
803;SDS011;25687;49.976;8.240;2023-04-01T05:19:21;3.33;;;1.33;;
803;SDS011;25687;49.976;8.240;2023-04-01T05:21:47;3.83;;;1.40;;
803;SDS011;25687;49.976;8.240;2023-04-01T05:24:12;2.67;;;1.30;;
803;SDS011;25687;49.976;8.240;2023-04-01T05:26:37;2.83;;;1.40;;
803;SDS011;25687;49.976;8.240;2023-04-01T05:29:03;2.60;;;1.07;;
803;SDS011;25687;49.976;8.240;2023-04-01T05:31:29;4.03;;;1.53;;
803;SDS011;25687;49.976;8.240;2023-04-01T05:33:55;4.83;;;1.40;;
803;SDS011;25687;49.976;8.240;2023-04-01T05:36:20;2.93;;;1.10;;
803;SDS011;25687;49.976;8.240;2023-04-01T05:38:46;4.73;;;1.30;;
803;SDS011;25687;49.976;8.240;2023-04-01T05:41:12;8.27;;;1.83;;
803;SDS011;25687;49.976;8.240;2023-04-01T05:43:38;1.40;;;0.97;;
803;SDS011;25687;49.976;8.240;2023-04-01T05:46:04;1.83;;;1.23;;
803;SDS011;25687;49.976;8.240;2023-04-01T05:48:29;2.40;;;1.00;;
803;SDS011;25687;49.976;8.240;2023-04-01T05:50:55;3.00;;;1.30;;
803;SDS011;25687;49.976;8.240;2023-04-01T05:53:20;3.07;;;1.00;;
803;SDS011;25687;49.976;8.240;2023-04-01T05:55:45;3.57;;;1.30;;
803;SDS011;25687;49.976;8.240;2023-04-01T05:58:10;2.00;;;1.10;;
803;SDS011;25687;49.976;8.240;2023-04-01T06:00:36;4.87;;;1.20;;
803;SDS011;25687;49.976;8.240;2023-04-01T06:03:01;3.23;;;1.40;;
803;SDS011;25687;49.976;8.240;2023-04-01T06:05:27;2.70;;;1.00;;
803;SDS011;25687;49.976;8.240;2023-04-01T06:07:58;1.87;;;1.13;;
803;SDS011;25687;49.976;8.240;2023-04-01T06:10:43;2.73;;;1.00;;
803;SDS011;25687;49.976;8.240;2023-04-01T06:14:00;3.23;;;1.00;;
803;SDS011;25687;49.976;8.240;2023-04-01T06:22:41;1.03;;;0.80;;
803;SDS011;25687;49.976;8.240;2023-04-01T06:25:21;2.83;;;1.03;;
803;SDS011;25687;49.976;8.240;2023-04-01T06:28:29;1.97;;;1.20;;
803;SDS011;25687;49.976;8.240;2023-04-01T06:33:55;1.93;;;1.07;;
803;SDS011;25687;49.976;8.240;2023-04-01T06:42:25;1.60;;;1.10;;
803;SDS011;25687;49.976;8.240;2023-04-01T06:45:34;2.07;;;0.87;;
803;SDS011;25687;49.976;8.240;2023-04-01T06:54:04;2.83;;;1.03;;
803;SDS011;25687;49.976;8.240;2023-04-01T06:56:36;0.80;;;0.80;;
803;SDS011;25687;49.976;8.240;2023-04-01T06:59:05;2.50;;;1.03;;
803;SDS011;25687;49.976;8.240;2023-04-01T07:01:38;1.60;;;0.80;;
803;SDS011;25687;49.976;8.240;2023-04-01T07:07:02;2.20;;;0.70;;
803;SDS011;25687;49.976;8.240;2023-04-01T07:09:38;0.83;;;0.70;;
803;SDS011;25687;49.976;8.240;2023-04-01T07:12:15;1.37;;;0.97;;
803;SDS011;25687;49.976;8.240;2023-04-01T07:14:55;1.07;;;0.70;;
803;SDS011;25687;49.976;8.240;2023-04-01T07:17:25;1.77;;;0.90;;
803;SDS011;25687;49.976;8.240;2023-04-01T07:19:57;0.70;;;0.60;;
803;SDS011;25687;49.976;8.240;2023-04-01T07:22:42;1.97;;;0.67;;
803;SDS011;25687;49.976;8.240;2023-04-01T07:27:41;2.13;;;0.80;;
803;SDS011;25687;49.976;8.240;2023-04-01T07:30:13;2.17;;;0.70;;
803;SDS011;25687;49.976;8.240;2023-04-01T07:32:42;1.00;;;0.90;;
803;SDS011;25687;49.976;8.240;2023-04-01T07:35:14;1.07;;;0.50;;
803;SDS011;25687;49.976;8.240;2023-04-01T07:43:14;1.87;;;1.33;;
803;SDS011;25687;49.976;8.240;2023-04-01T07:45:47;1.63;;;0.90;;
803;SDS011;25687;49.976;8.240;2023-04-01T07:51:42;4.20;;;0.90;;
803;SDS011;25687;49.976;8.240;2023-04-01T07:54:40;0.83;;;0.50;;
803;SDS011;25687;49.976;8.240;2023-04-01T07:57:46;1.10;;;0.80;;
803;SDS011;25687;49.976;8.240;2023-04-01T08:03:20;1.77;;;0.80;;
803;SDS011;25687;49.976;8.240;2023-04-01T08:11:14;0.93;;;0.83;;
803;SDS011;25687;49.976;8.240;2023-04-01T08:16:38;0.43;;;0.43;;
803;SDS011;25687;49.976;8.240;2023-04-01T08:19:29;1.50;;;0.70;;
803;SDS011;25687;49.976;8.240;2023-04-01T08:22:13;0.60;;;0.60;;
803;SDS011;25687;49.976;8.240;2023-04-01T08:24:45;1.20;;;0.53;;
803;SDS011;25687;49.976;8.240;2023-04-01T08:27:17;1.30;;;0.73;;
803;SDS011;25687;49.976;8.240;2023-04-01T08:29:50;1.33;;;0.63;;
803;SDS011;25687;49.976;8.240;2023-04-01T08:32:22;1.20;;;0.60;;
803;SDS011;25687;49.976;8.240;2023-04-01T08:35:07;2.10;;;0.73;;
803;SDS011;25687;49.976;8.240;2023-04-01T08:37:40;1.10;;;0.60;;
803;SDS011;25687;49.976;8.240;2023-04-01T08:40:16;1.50;;;0.77;;
803;SDS011;25687;49.976;8.240;2023-04-01T08:48:33;0.70;;;0.70;;
803;SDS011;25687;49.976;8.240;2023-04-01T08:57:08;1.67;;;1.00;;
803;SDS011;25687;49.976;8.240;2023-04-01T08:59:53;1.33;;;0.63;;
803;SDS011;25687;49.976;8.240;2023-04-01T09:02:39;0.47;;;0.47;;
803;SDS011;25687;49.976;8.240;2023-04-01T09:16:27;2.20;;;0.80;;
803;SDS011;25687;49.976;8.240;2023-04-01T09:22:19;0.63;;;0.63;;
803;SDS011;25687;49.976;8.240;2023-04-01T09:33:16;1.60;;;0.70;;
803;SDS011;25687;49.976;8.240;2023-04-01T09:36:28;2.17;;;0.93;;
803;SDS011;25687;49.976;8.240;2023-04-01T09:41:36;1.27;;;0.60;;
803;SDS011;25687;49.976;8.240;2023-04-01T09:44:18;3.53;;;0.80;;
803;SDS011;25687;49.976;8.240;2023-04-01T09:52:08;3.03;;;0.80;;
803;SDS011;25687;49.976;8.240;2023-04-01T10:00:52;1.33;;;0.90;;
803;SDS011;25687;49.976;8.240;2023-04-01T10:14:36;0.77;;;0.43;;
803;SDS011;25687;49.976;8.240;2023-04-01T10:37:33;0.40;;;0.40;;
803;SDS011;25687;49.976;8.240;2023-04-01T10:40:21;0.70;;;0.70;;
803;SDS011;25687;49.976;8.240;2023-04-01T10:43:21;0.97;;;0.70;;
803;SDS011;25687;49.976;8.240;2023-04-01T10:45:57;1.10;;;0.60;;
803;SDS011;25687;49.976;8.240;2023-04-01T10:51:12;0.57;;;0.53;;
803;SDS011;25687;49.976;8.240;2023-04-01T10:53:49;0.40;;;0.40;;
803;SDS011;25687;49.976;8.240;2023-04-01T11:08:38;0.60;;;0.50;;
803;SDS011;25687;49.976;8.240;2023-04-01T11:16:47;0.40;;;0.40;;
803;SDS011;25687;49.976;8.240;2023-04-01T11:19:27;0.60;;;0.60;;
803;SDS011;25687;49.976;8.240;2023-04-01T11:22:08;0.63;;;0.60;;
803;SDS011;25687;49.976;8.240;2023-04-01T11:27:23;0.40;;;0.40;;
803;SDS011;25687;49.976;8.240;2023-04-01T11:32:53;0.57;;;0.57;;
803;SDS011;25687;49.976;8.240;2023-04-01T11:35:40;0.73;;;0.67;;
803;SDS011;25687;49.976;8.240;2023-04-01T11:38:32;0.80;;;0.73;;
803;SDS011;25687;49.976;8.240;2023-04-01T11:55:28;1.60;;;0.30;;
803;SDS011;25687;49.976;8.240;2023-04-01T11:58:12;0.50;;;0.50;;
803;SDS011;25687;49.976;8.240;2023-04-01T12:03:38;1.23;;;0.60;;
803;SDS011;25687;49.976;8.240;2023-04-01T12:09:18;1.07;;;0.80;;
803;SDS011;25687;49.976;8.240;2023-04-01T12:14:49;0.80;;;0.60;;
803;SDS011;25687;49.976;8.240;2023-04-01T12:17:39;1.30;;;0.80;;
803;SDS011;25687;49.976;8.240;2023-04-01T12:22:43;0.97;;;0.53;;
803;SDS011;25687;49.976;8.240;2023-04-01T12:30:42;0.30;;;0.30;;
803;SDS011;25687;49.976;8.240;2023-04-01T12:33:34;0.40;;;0.40;;
803;SDS011;25687;49.976;8.240;2023-04-01T12:36:09;1.13;;;0.50;;
803;SDS011;25687;49.976;8.240;2023-04-01T12:39:06;1.93;;;0.80;;
803;SDS011;25687;49.976;8.240;2023-04-01T12:45:12;0.80;;;0.50;;
803;SDS011;25687;49.976;8.240;2023-04-01T12:56:14;0.40;;;0.40;;
803;SDS011;25687;49.976;8.240;2023-04-01T12:59:05;1.10;;;0.50;;
803;SDS011;25687;49.976;8.240;2023-04-01T13:12:59;0.50;;;0.50;;
803;SDS011;25687;49.976;8.240;2023-04-01T13:15:31;0.90;;;0.60;;
803;SDS011;25687;49.976;8.240;2023-04-01T13:29:07;0.63;;;0.40;;
803;SDS011;25687;49.976;8.240;2023-04-01T13:31:53;0.87;;;0.40;;
803;SDS011;25687;49.976;8.240;2023-04-01T13:34:36;1.13;;;0.60;;
803;SDS011;25687;49.976;8.240;2023-04-01T13:37:13;0.40;;;0.40;;
803;SDS011;25687;49.976;8.240;2023-04-01T13:42:39;0.40;;;0.40;;
803;SDS011;25687;49.976;8.240;2023-04-01T13:45:17;0.70;;;0.50;;
803;SDS011;25687;49.976;8.240;2023-04-01T13:50:48;0.50;;;0.27;;
803;SDS011;25687;49.976;8.240;2023-04-01T13:56:15;0.40;;;0.40;;
803;SDS011;25687;49.976;8.240;2023-04-01T13:58:58;0.40;;;0.40;;
803;SDS011;25687;49.976;8.240;2023-04-01T14:02:01;0.53;;;0.50;;
803;SDS011;25687;49.976;8.240;2023-04-01T14:04:49;0.40;;;0.40;;
803;SDS011;25687;49.976;8.240;2023-04-01T14:07:48;0.43;;;0.43;;
803;SDS011;25687;49.976;8.240;2023-04-01T14:13:28;0.60;;;0.60;;
803;SDS011;25687;49.976;8.240;2023-04-01T14:16:05;0.43;;;0.40;;
803;SDS011;25687;49.976;8.240;2023-04-01T14:18:53;1.47;;;0.40;;
803;SDS011;25687;49.976;8.240;2023-04-01T14:21:52;1.10;;;0.57;;
803;SDS011;25687;49.976;8.240;2023-04-01T14:24:32;0.97;;;0.40;;
803;SDS011;25687;49.976;8.240;2023-04-01T14:27:19;0.40;;;0.40;;
803;SDS011;25687;49.976;8.240;2023-04-01T14:35:31;0.40;;;0.40;;
803;SDS011;25687;49.976;8.240;2023-04-01T14:38:04;2.10;;;0.70;;
803;SDS011;25687;49.976;8.240;2023-04-01T14:40:44;0.30;;;0.30;;
803;SDS011;25687;49.976;8.240;2023-04-01T14:43:21;0.60;;;0.40;;
803;SDS011;25687;49.976;8.240;2023-04-01T14:51:21;1.37;;;0.60;;
803;SDS011;25687;49.976;8.240;2023-04-01T14:56:48;0.60;;;0.60;;
803;SDS011;25687;49.976;8.240;2023-04-01T15:01:55;0.60;;;0.60;;
803;SDS011;25687;49.976;8.240;2023-04-01T15:10:17;0.50;;;0.50;;
803;SDS011;25687;49.976;8.240;2023-04-01T15:15:57;0.93;;;0.60;;
803;SDS011;25687;49.976;8.240;2023-04-01T15:21:19;0.50;;;0.50;;
803;SDS011;25687;49.976;8.240;2023-04-01T15:24:10;0.53;;;0.50;;
803;SDS011;25687;49.976;8.240;2023-04-01T15:29:33;0.40;;;0.40;;
803;SDS011;25687;49.976;8.240;2023-04-01T15:38:06;0.40;;;0.40;;
803;SDS011;25687;49.976;8.240;2023-04-01T15:41:02;0.40;;;0.40;;
803;SDS011;25687;49.976;8.240;2023-04-01T15:43:46;0.37;;;0.37;;
803;SDS011;25687;49.976;8.240;2023-04-01T15:52:06;3.00;;;0.80;;
803;SDS011;25687;49.976;8.240;2023-04-01T16:06:33;1.57;;;1.00;;
803;SDS011;25687;49.976;8.240;2023-04-01T16:09:43;1.17;;;0.90;;
803;SDS011;25687;49.976;8.240;2023-04-01T16:13:03;5.00;;;3.33;;
803;SDS011;25687;49.976;8.240;2023-04-01T16:24:15;0.90;;;0.77;;
803;SDS011;25687;49.976;8.240;2023-04-01T16:29:53;0.83;;;0.60;;
803;SDS011;25687;49.976;8.240;2023-04-01T16:35:17;0.67;;;0.60;;
803;SDS011;25687;49.976;8.240;2023-04-01T16:37:53;0.77;;;0.60;;
803;SDS011;25687;49.976;8.240;2023-04-01T16:45:39;0.77;;;0.60;;
803;SDS011;25687;49.976;8.240;2023-04-01T16:48:14;0.60;;;0.60;;
803;SDS011;25687;49.976;8.240;2023-04-01T16:53:48;2.47;;;0.60;;
803;SDS011;25687;49.976;8.240;2023-04-01T16:59:02;0.70;;;0.60;;
803;SDS011;25687;49.976;8.240;2023-04-01T17:04:16;0.73;;;0.50;;
803;SDS011;25687;49.976;8.240;2023-04-01T17:07:05;0.53;;;0.40;;
803;SDS011;25687;49.976;8.240;2023-04-01T17:12:38;0.60;;;0.60;;
803;SDS011;25687;49.976;8.240;2023-04-01T17:15:30;0.50;;;0.50;;
803;SDS011;25687;49.976;8.240;2023-04-01T17:21:00;0.53;;;0.50;;
803;SDS011;25687;49.976;8.240;2023-04-01T17:26:42;3.43;;;3.13;;
803;SDS011;25687;49.976;8.240;2023-04-01T17:42:42;0.67;;;0.67;;
803;SDS011;25687;49.976;8.240;2023-04-01T17:51:17;0.70;;;0.60;;
803;SDS011;25687;49.976;8.240;2023-04-01T18:05:04;3.53;;;0.70;;
803;SDS011;25687;49.976;8.240;2023-04-01T18:10:51;1.03;;;0.93;;
803;SDS011;25687;49.976;8.240;2023-04-01T18:13:27;0.97;;;0.73;;
803;SDS011;25687;49.976;8.240;2023-04-01T18:16:02;0.80;;;0.70;;
803;SDS011;25687;49.976;8.240;2023-04-01T18:19:08;2.30;;;0.63;;
803;SDS011;25687;49.976;8.240;2023-04-01T18:21:46;0.80;;;0.80;;
803;SDS011;25687;49.976;8.240;2023-04-01T18:29:47;0.60;;;0.60;;
803;SDS011;25687;49.976;8.240;2023-04-01T18:46:07;0.60;;;0.60;;
803;SDS011;25687;49.976;8.240;2023-04-01T18:48:49;0.70;;;0.70;;
803;SDS011;25687;49.976;8.240;2023-04-01T18:57:25;1.63;;;0.70;;
803;SDS011;25687;49.976;8.240;2023-04-01T19:00:20;1.00;;;0.80;;
803;SDS011;25687;49.976;8.240;2023-04-01T19:02:55;1.20;;;0.90;;
803;SDS011;25687;49.976;8.240;2023-04-01T19:05:36;0.80;;;0.80;;
803;SDS011;25687;49.976;8.240;2023-04-01T19:08:25;1.93;;;1.03;;
803;SDS011;25687;49.976;8.240;2023-04-01T19:10:57;1.20;;;0.73;;
803;SDS011;25687;49.976;8.240;2023-04-01T19:13:44;0.67;;;0.67;;
803;SDS011;25687;49.976;8.240;2023-04-01T19:16:28;0.60;;;0.60;;
803;SDS011;25687;49.976;8.240;2023-04-01T19:21:44;2.90;;;1.23;;
803;SDS011;25687;49.976;8.240;2023-04-01T19:27:34;1.23;;;0.90;;
803;SDS011;25687;49.976;8.240;2023-04-01T19:30:16;0.83;;;0.83;;
803;SDS011;25687;49.976;8.240;2023-04-01T19:33:12;1.13;;;0.67;;
803;SDS011;25687;49.976;8.240;2023-04-01T19:35:52;1.60;;;0.83;;
803;SDS011;25687;49.976;8.240;2023-04-01T19:52:20;1.63;;;1.10;;
803;SDS011;25687;49.976;8.240;2023-04-01T20:00:43;1.40;;;1.30;;
803;SDS011;25687;49.976;8.240;2023-04-01T20:03:15;2.27;;;1.00;;
803;SDS011;25687;49.976;8.240;2023-04-01T20:14:01;0.70;;;0.70;;
803;SDS011;25687;49.976;8.240;2023-04-01T20:19:28;1.47;;;0.80;;
803;SDS011;25687;49.976;8.240;2023-04-01T20:22:00;1.40;;;0.80;;
803;SDS011;25687;49.976;8.240;2023-04-01T20:27:14;0.83;;;0.80;;
803;SDS011;25687;49.976;8.240;2023-04-01T20:32:28;0.80;;;0.77;;
803;SDS011;25687;49.976;8.240;2023-04-01T20:37:35;1.10;;;0.80;;
803;SDS011;25687;49.976;8.240;2023-04-01T20:40:20;0.80;;;0.80;;
803;SDS011;25687;49.976;8.240;2023-04-01T20:42:57;1.20;;;0.80;;
803;SDS011;25687;49.976;8.240;2023-04-01T20:45:48;1.30;;;0.80;;
803;SDS011;25687;49.976;8.240;2023-04-01T20:53:38;1.03;;;0.80;;
803;SDS011;25687;49.976;8.240;2023-04-01T20:56:17;0.77;;;0.73;;
803;SDS011;25687;49.976;8.240;2023-04-01T20:58:54;1.47;;;0.90;;
803;SDS011;25687;49.976;8.240;2023-04-01T21:01:27;1.23;;;0.90;;
803;SDS011;25687;49.976;8.240;2023-04-01T21:06:44;0.70;;;0.70;;
803;SDS011;25687;49.976;8.240;2023-04-01T21:12:24;1.53;;;0.93;;
803;SDS011;25687;49.976;8.240;2023-04-01T21:25:47;1.00;;;1.00;;
803;SDS011;25687;49.976;8.240;2023-04-01T21:31:19;1.30;;;1.20;;
803;SDS011;25687;49.976;8.240;2023-04-01T21:36:43;1.30;;;1.20;;
803;SDS011;25687;49.976;8.240;2023-04-01T21:44:39;1.47;;;1.37;;
803;SDS011;25687;49.976;8.240;2023-04-01T22:04:49;3.43;;;0.90;;
803;SDS011;25687;49.976;8.240;2023-04-01T22:07:32;2.30;;;1.40;;
803;SDS011;25687;49.976;8.240;2023-04-01T22:18:37;2.20;;;1.30;;
803;SDS011;25687;49.976;8.240;2023-04-01T22:23:56;1.57;;;1.47;;
803;SDS011;25687;49.976;8.240;2023-04-01T22:29:09;1.40;;;1.30;;
803;SDS011;25687;49.976;8.240;2023-04-01T22:31:52;1.30;;;1.20;;
803;SDS011;25687;49.976;8.240;2023-04-01T22:36:55;1.50;;;1.23;;
803;SDS011;25687;49.976;8.240;2023-04-01T22:39:33;1.37;;;1.20;;
803;SDS011;25687;49.976;8.240;2023-04-01T22:44:53;2.57;;;1.13;;
803;SDS011;25687;49.976;8.240;2023-04-01T22:52:40;1.20;;;1.10;;
803;SDS011;25687;49.976;8.240;2023-04-01T22:55:32;1.70;;;1.20;;
803;SDS011;25687;49.976;8.240;2023-04-01T23:00:33;1.50;;;1.20;;
803;SDS011;25687;49.976;8.240;2023-04-01T23:03:21;3.00;;;1.77;;
803;SDS011;25687;49.976;8.240;2023-04-01T23:05:53;1.90;;;1.43;;
803;SDS011;25687;49.976;8.240;2023-04-01T23:13:59;1.50;;;1.40;;
803;SDS011;25687;49.976;8.240;2023-04-01T23:19:26;3.37;;;1.40;;
803;SDS011;25687;49.976;8.240;2023-04-01T23:25:04;2.17;;;1.40;;
803;SDS011;25687;49.976;8.240;2023-04-01T23:33:50;1.23;;;1.13;;
803;SDS011;25687;49.976;8.240;2023-04-01T23:38:39;1.93;;;1.60;;
803;SDS011;25687;49.976;8.240;2023-04-01T23:41:07;2.27;;;1.33;;
803;SDS011;25687;49.976;8.240;2023-04-01T23:43:42;3.23;;;1.40;;
803;SDS011;25687;49.976;8.240;2023-04-01T23:46:10;1.57;;;1.47;;
803;SDS011;25687;49.976;8.240;2023-04-01T23:48:39;1.63;;;1.50;;
803;SDS011;25687;49.976;8.240;2023-04-01T23:51:20;1.37;;;1.27;;
803;SDS011;25687;49.976;8.240;2023-04-01T23:53:48;1.77;;;1.40;;
803;SDS011;25687;49.976;8.240;2023-04-01T23:56:31;1.83;;;1.40;;
803;SDS011;25687;49.976;8.240;2023-04-01T23:58:59;2.07;;;1.87;;
